Time;durP1;ratioP1;P1;durP2;ratioP2;P2;SDS_P1;SDS_P2;PMS_P1;PMS_P2;Temp;Humidity;BMP_temperature;BMP_pressure;BME280_temperature;BME280_humidity;BME280_pressure;Samples;Min_cycle;Max_cycle;Signal;HPM_P1;HPM_P2
2021/12/04 00:00:45;;;;;;;4.00;1.65;;;;;;;;;;5010171;28;20104;-71
2021/12/04 00:03:11;;;;;;;6.97;2.20;;;;;;;;;;5010593;28;20046;-72
2021/12/04 00:05:40;;;;;;;3.78;1.70;;;;;;;;;;5010417;28;20574;-72
2021/12/04 00:08:06;;;;;;;6.10;1.65;;;;;;;;;;5010243;28;20610;-72
2021/12/04 00:10:32;;;;;;;4.70;1.80;;;;;;;;;;5010154;28;20133;-72
2021/12/04 00:12:58;;;;;;;3.60;1.80;;;;;;;;;;4992950;28;20058;-73
2021/12/04 00:15:24;;;;;;;3.45;1.70;;;;;;;;;;5009910;28;20112;-72
2021/12/04 00:17:50;;;;;;;3.88;1.70;;;;;;;;;;5010385;28;20451;-73
2021/12/04 00:20:16;;;;;;;4.20;2.08;;;;;;;;;;5009809;28;20104;-72
2021/12/04 00:22:43;;;;;;;5.70;2.20;;;;;;;;;;5009808;28;20073;-72
2021/12/04 00:25:09;;;;;;;4.32;1.70;;;;;;;;;;5009775;28;20050;-72
2021/12/04 00:27:36;;;;;;;5.45;1.77;;;;;;;;;;5010159;28;20129;-73
2021/12/04 00:30:02;;;;;;;3.42;1.67;;;;;;;;;;5010331;28;20077;-73
2021/12/04 00:32:36;;;;;;;4.47;1.83;;;;;;;;;;5009335;28;20602;-72
2021/12/04 00:35:21;;;;;;;3.33;1.77;;;;;;;;;;5010224;28;20451;-72
2021/12/04 00:49:09;;;;;;;4.78;1.70;;;;;;;;;;5009731;28;20431;-71
2021/12/04 00:51:37;;;;;;;2.72;1.80;;;;;;;;;;5009807;28;20046;-70
2021/12/04 00:54:05;;;;;;;9.90;2.15;;;;;;;;;;5009939;28;20046;-72
2021/12/04 00:56:32;;;;;;;14.77;2.28;;;;;;;;;;5009560;28;20057;-70
2021/12/04 00:58:58;;;;;;;6.15;2.10;;;;;;;;;;4991894;28;20100;-71
2021/12/04 01:01:24;;;;;;;3.85;2.03;;;;;;;;;;5009593;28;20054;-72
2021/12/04 01:03:50;;;;;;;8.15;2.25;;;;;;;;;;5009624;28;20496;-72
2021/12/04 01:06:16;;;;;;;3.67;1.63;;;;;;;;;;5009598;28;20566;-72
2021/12/04 01:08:42;;;;;;;5.30;2.00;;;;;;;;;;5009873;28;20050;-71
2021/12/04 01:11:08;;;;;;;3.85;1.80;;;;;;;;;;5009290;28;20119;-72
2021/12/04 01:13:35;;;;;;;4.03;1.73;;;;;;;;;;5009095;28;20062;-73
2021/12/04 01:16:01;;;;;;;4.47;1.60;;;;;;;;;;5009567;28;20050;-73
2021/12/04 01:18:27;;;;;;;2.90;1.75;;;;;;;;;;5009865;28;20053;-72
2021/12/04 01:20:53;;;;;;;6.00;2.00;;;;;;;;;;5009530;28;20069;-71
2021/12/04 01:23:20;;;;;;;4.72;1.98;;;;;;;;;;5009025;28;20038;-71
2021/12/04 01:25:46;;;;;;;6.05;1.48;;;;;;;;;;5009868;28;20095;-72
2021/12/04 01:28:12;;;;;;;3.50;1.73;;;;;;;;;;5008954;28;20450;-72
2021/12/04 01:30:38;;;;;;;3.25;1.73;;;;;;;;;;5008589;28;20073;-72
2021/12/04 01:33:04;;;;;;;4.97;1.92;;;;;;;;;;5008906;28;20053;-72
2021/12/04 01:35:30;;;;;;;6.95;1.70;;;;;;;;;;5008363;28;20041;-72
2021/12/04 01:37:56;;;;;;;6.30;1.80;;;;;;;;;;5008343;28;20129;-72
2021/12/04 01:40:22;;;;;;;6.20;1.75;;;;;;;;;;5009341;28;20192;-72
2021/12/04 01:42:48;;;;;;;4.43;1.50;;;;;;;;;;5009543;28;20220;-72
2021/12/04 01:45:17;;;;;;;4.18;1.58;;;;;;;;;;5009152;28;20128;-72
2021/12/04 01:47:43;;;;;;;3.05;1.70;;;;;;;;;;5009237;28;20038;-73
2021/12/04 01:50:09;;;;;;;7.20;1.83;;;;;;;;;;5009634;28;20045;-71
2021/12/04 01:52:35;;;;;;;4.82;1.45;;;;;;;;;;5012792;28;20046;-72
2021/12/04 01:55:01;;;;;;;4.35;1.70;;;;;;;;;;4995847;28;20054;-72
2021/12/04 01:57:27;;;;;;;3.15;1.70;;;;;;;;;;5013311;28;20048;-72
2021/12/04 01:59:53;;;;;;;3.42;1.83;;;;;;;;;;5013185;28;20526;-71
2021/12/04 02:02:20;;;;;;;4.70;1.67;;;;;;;;;;5012829;28;20037;-71
2021/12/04 02:04:46;;;;;;;4.75;1.55;;;;;;;;;;5012589;28;20073;-72
2021/12/04 02:07:13;;;;;;;4.53;1.92;;;;;;;;;;5012896;28;20038;-71
2021/12/04 02:09:39;;;;;;;4.55;1.73;;;;;;;;;;5012530;28;20096;-71
2021/12/04 02:12:07;;;;;;;3.47;1.63;;;;;;;;;;5012979;28;20058;-72
2021/12/04 02:14:37;;;;;;;3.97;2.65;;;;;;;;;;5012377;28;20089;-70
2021/12/04 02:17:04;;;;;;;2.88;1.50;;;;;;;;;;5012770;28;20462;-71
2021/12/04 02:19:30;;;;;;;4.90;1.70;;;;;;;;;;5012375;28;20049;-71
2021/12/04 02:21:56;;;;;;;3.88;1.80;;;;;;;;;;5012572;28;20042;-72
2021/12/04 02:24:22;;;;;;;4.47;1.70;;;;;;;;;;5012217;28;20125;-72
2021/12/04 02:26:49;;;;;;;3.50;1.77;;;;;;;;;;4994480;28;20049;-71
2021/12/04 02:29:15;;;;;;;3.55;1.92;;;;;;;;;;5012391;28;20111;-72
2021/12/04 02:31:46;;;;;;;2.60;1.55;;;;;;;;;;5012676;28;20081;-72
2021/12/04 02:34:18;;;;;;;3.60;1.67;;;;;;;;;;5012626;28;20137;-71
2021/12/04 02:36:44;;;;;;;2.38;1.38;;;;;;;;;;5012214;28;20050;-71
2021/12/04 02:39:20;;;;;;;2.90;1.60;;;;;;;;;;4994611;28;20098;-72
2021/12/04 02:41:46;;;;;;;6.18;1.70;;;;;;;;;;5012467;28;20081;-71
2021/12/04 02:44:12;;;;;;;6.70;1.95;;;;;;;;;;5012171;28;20046;-72
2021/12/04 02:46:38;;;;;;;4.13;2.00;;;;;;;;;;5011466;28;20407;-71
2021/12/04 02:49:06;;;;;;;3.90;1.65;;;;;;;;;;5012216;28;20130;-71
2021/12/04 02:51:32;;;;;;;3.15;1.65;;;;;;;;;;5011902;28;20133;-72
2021/12/04 02:53:58;;;;;;;2.85;1.90;;;;;;;;;;5011646;28;20124;-72
2021/12/04 02:56:25;;;;;;;2.78;1.63;;;;;;;;;;5012153;28;20053;-71
2021/12/04 02:58:56;;;;;;;4.78;1.73;;;;;;;;;;5011605;28;20531;-71
2021/12/04 03:01:22;;;;;;;3.03;1.75;;;;;;;;;;5011636;28;20085;-72
2021/12/04 03:03:48;;;;;;;2.50;1.83;;;;;;;;;;5011654;28;20389;-71
2021/12/04 03:06:14;;;;;;;3.40;1.73;;;;;;;;;;5011804;28;20042;-71
2021/12/04 03:08:40;;;;;;;1.92;1.20;;;;;;;;;;5010659;28;20190;-72
2021/12/04 03:11:06;;;;;;;2.80;1.50;;;;;;;;;;5011145;28;20050;-72
2021/12/04 03:13:32;;;;;;;2.72;1.70;;;;;;;;;;5010811;28;20058;-72
2021/12/04 03:15:59;;;;;;;3.22;1.58;;;;;;;;;;5010999;28;20092;-71
2021/12/04 03:18:26;;;;;;;2.63;1.45;;;;;;;;;;5010797;28;20057;-72
2021/12/04 03:20:55;;;;;;;4.80;1.70;;;;;;;;;;5011088;28;21198;-72
2021/12/04 03:23:51;;;;;;;6.57;1.60;;;;;;;;;;5009894;28;20095;-72
2021/12/04 03:26:11;;;;;;;4.97;1.80;;;;;;;;;;5009709;28;20042;-72
2021/12/04 03:28:37;;;;;;;2.42;1.33;;;;;;;;;;4993767;28;20061;-71
2021/12/04 03:31:13;;;;;;;6.22;1.77;;;;;;;;;;5010999;28;20050;-72
2021/12/04 03:41:54;;;;;;;2.97;1.45;;;;;;;;;;5011253;28;20093;-72
2021/12/04 03:44:20;;;;;;;3.72;1.60;;;;;;;;;;5010893;28;20081;-72
2021/12/04 03:46:48;;;;;;;3.35;2.10;;;;;;;;;;4993321;28;20239;-72
2021/12/04 03:49:14;;;;;;;3.13;1.60;;;;;;;;;;5010547;28;20050;-72
2021/12/04 03:51:40;;;;;;;3.25;1.50;;;;;;;;;;4993427;28;20056;-72
2021/12/04 03:54:06;;;;;;;2.72;1.60;;;;;;;;;;5011172;28;20042;-72
2021/12/04 03:56:33;;;;;;;2.15;1.40;;;;;;;;;;4992794;28;20042;-72
2021/12/04 03:58:59;;;;;;;2.22;1.42;;;;;;;;;;5010939;28;20057;-72
2021/12/04 04:01:25;;;;;;;2.67;1.60;;;;;;;;;;5010560;28;20037;-72
2021/12/04 04:03:51;;;;;;;4.30;2.00;;;;;;;;;;5010706;28;20077;-71
2021/12/04 04:06:17;;;;;;;22.00;2.70;;;;;;;;;;4992364;28;20057;-70
2021/12/04 04:08:43;;;;;;;6.68;2.10;;;;;;;;;;5010838;28;20136;-71
2021/12/04 04:11:09;;;;;;;8.48;2.10;;;;;;;;;;5010788;28;20566;-71
2021/12/04 04:13:40;;;;;;;7.28;2.03;;;;;;;;;;5009316;28;20079;-72
2021/12/04 04:16:06;;;;;;;4.57;2.10;;;;;;;;;;5010429;28;20050;-72
2021/12/04 04:18:32;;;;;;;4.22;1.90;;;;;;;;;;5009788;28;20050;-72
2021/12/04 04:20:59;;;;;;;5.28;1.83;;;;;;;;;;5010097;28;20054;-72
2021/12/04 04:23:25;;;;;;;4.35;1.90;;;;;;;;;;5010551;28;20080;-72
2021/12/04 04:25:51;;;;;;;11.73;2.15;;;;;;;;;;5010427;28;20049;-72
2021/12/04 04:28:17;;;;;;;3.90;1.98;;;;;;;;;;5010395;28;20099;-73
2021/12/04 04:30:43;;;;;;;2.97;1.58;;;;;;;;;;5010500;28;20050;-72
2021/12/04 04:33:13;;;;;;;3.80;1.85;;;;;;;;;;5009822;28;20050;-73
2021/12/04 04:35:39;;;;;;;2.72;1.50;;;;;;;;;;5010020;28;20056;-73
2021/12/04 05:02:18;;;;;;;2.78;1.45;;;;;;;;;;5009537;28;20089;-73
2021/12/04 05:10:37;;;;;;;2.30;1.58;;;;;;;;;;5009565;28;20407;-72
2021/12/04 05:13:06;;;;;;;;;;;;;;;;;;5009678;28;20093;-72
2021/12/04 05:20:36;;;;;;;4.53;1.75;;;;;;;;;;5009309;28;20054;-72
2021/12/04 05:23:02;;;;;;;4.43;2.00;;;;;;;;;;5009160;28;20053;-72
2021/12/04 05:25:30;;;;;;;4.78;1.58;;;;;;;;;;5010659;28;20056;-73
2021/12/04 05:27:56;;;;;;;2.60;1.55;;;;;;;;;;5013925;28;20056;-72
2021/12/04 05:30:22;;;;;;;3.47;1.50;;;;;;;;;;5013883;28;20037;-73
2021/12/04 05:32:48;;;;;;;2.35;1.50;;;;;;;;;;5013126;28;20041;-72
2021/12/04 05:35:14;;;;;;;2.60;1.60;;;;;;;;;;5012909;28;20050;-72
2021/12/04 05:37:40;;;;;;;3.53;1.77;;;;;;;;;;5013657;28;20096;-72
2021/12/04 05:40:10;;;;;;;3.72;1.42;;;;;;;;;;5013090;28;20084;-72
2021/12/04 05:42:36;;;;;;;2.22;1.40;;;;;;;;;;5013447;28;20459;-72
2021/12/04 05:45:04;;;;;;;2.40;1.58;;;;;;;;;;5013132;28;20207;-72
2021/12/04 05:47:37;;;;;;;2.40;1.48;;;;;;;;;;5013259;28;20046;-72
2021/12/04 05:55:55;;;;;;;2.30;1.70;;;;;;;;;;5013579;28;20064;-72
2021/12/04 05:58:22;;;;;;;3.97;1.90;;;;;;;;;;5013069;28;20050;-73
2021/12/04 06:00:48;;;;;;;2.72;1.50;;;;;;;;;;5013154;28;20468;-73
2021/12/04 06:03:15;;;;;;;5.97;1.67;;;;;;;;;;5012389;28;20132;-72
2021/12/04 06:05:41;;;;;;;2.63;1.60;;;;;;;;;;5012841;28;20056;-72
2021/12/04 06:08:07;;;;;;;5.18;1.70;;;;;;;;;;5012855;28;20603;-72
2021/12/04 06:10:33;;;;;;;3.55;1.60;;;;;;;;;;5012344;28;20042;-71
2021/12/04 06:12:59;;;;;;;2.75;1.60;;;;;;;;;;5012193;28;20057;-71
2021/12/04 06:15:25;;;;;;;17.13;1.95;;;;;;;;;;5011736;28;20500;-71
2021/12/04 06:17:53;;;;;;;9.15;2.38;;;;;;;;;;4994674;28;20519;-70
2021/12/04 06:23:04;;;;;;;7.25;1.77;;;;;;;;;;5012616;28;20566;-70
2021/12/04 06:25:30;;;;;;;4.32;1.50;;;;;;;;;;5012136;28;20042;-70
2021/12/04 06:27:57;;;;;;;8.50;1.73;;;;;;;;;;4995201;28;20046;-70
2021/12/04 06:30:24;;;;;;;4.43;1.50;;;;;;;;;;4994866;28;20087;-69
2021/12/04 06:32:52;;;;;;;10.23;2.03;;;;;;;;;;5012514;28;20060;-70
2021/12/04 06:35:18;;;;;;;6.60;1.40;;;;;;;;;;5011925;28;20500;-71
2021/12/04 06:37:45;;;;;;;3.60;1.63;;;;;;;;;;5011364;28;20056;-70
2021/12/04 06:40:12;;;;;;;3.38;1.67;;;;;;;;;;4994786;28;20100;-71
2021/12/04 06:42:39;;;;;;;2.00;1.40;;;;;;;;;;4997077;28;20108;-71
2021/12/04 06:45:06;;;;;;;5.35;2.05;;;;;;;;;;4993136;28;20566;-71
2021/12/04 06:47:33;;;;;;;4.63;1.40;;;;;;;;;;5011321;28;20054;-71
2021/12/04 06:50:10;;;;;;;4.45;1.48;;;;;;;;;;5012537;28;20500;-72
2021/12/04 06:52:37;;;;;;;3.35;1.58;;;;;;;;;;5011918;28;20438;-72
2021/12/04 06:55:04;;;;;;;3.30;1.40;;;;;;;;;;5012227;28;20046;-72
2021/12/04 06:57:33;;;;;;;6.05;1.60;;;;;;;;;;4994074;28;20061;-71
2021/12/04 06:59:59;;;;;;;4.72;1.50;;;;;;;;;;5011589;28;20585;-72
2021/12/04 07:02:25;;;;;;;3.63;1.27;;;;;;;;;;5011803;28;20042;-72
2021/12/04 07:04:51;;;;;;;4.55;1.60;;;;;;;;;;5011883;28;20133;-72
2021/12/04 07:07:18;;;;;;;2.90;1.40;;;;;;;;;;5011485;28;20089;-72
2021/12/04 07:09:44;;;;;;;2.47;1.40;;;;;;;;;;5011226;28;20488;-72
2021/12/04 07:12:11;;;;;;;4.80;1.90;;;;;;;;;;5004440;28;20141;-71
2021/12/04 07:14:38;;;;;;;2.90;1.30;;;;;;;;;;5007240;28;20054;-71
2021/12/04 07:17:05;;;;;;;4.18;1.33;;;;;;;;;;4993566;28;20160;-73
2021/12/04 07:19:32;;;;;;;1.75;1.10;;;;;;;;;;5011460;28;20050;-72
2021/12/04 07:21:58;;;;;;;3.40;1.42;;;;;;;;;;5011840;28;20066;-71
2021/12/04 07:24:26;;;;;;;4.20;1.95;;;;;;;;;;5011641;28;20048;-70
2021/12/04 07:26:52;;;;;;;2.05;1.13;;;;;;;;;;5011686;28;20427;-71
2021/12/04 07:29:18;;;;;;;6.43;1.38;;;;;;;;;;4993361;28;20046;-70
2021/12/04 07:31:44;;;;;;;3.00;1.33;;;;;;;;;;5011319;28;20042;-70
2021/12/04 07:34:10;;;;;;;8.18;2.10;;;;;;;;;;5010959;28;20092;-71
2021/12/04 07:36:36;;;;;;;2.13;1.40;;;;;;;;;;4993608;28;20107;-70
2021/12/04 07:39:03;;;;;;;5.72;1.50;;;;;;;;;;4993414;28;20050;-70
2021/12/04 07:41:29;;;;;;;4.75;1.55;;;;;;;;;;5010508;28;20095;-69
2021/12/04 07:43:55;;;;;;;3.90;1.50;;;;;;;;;;4993887;28;20054;-71
2021/12/04 07:46:21;;;;;;;4.47;1.30;;;;;;;;;;5010920;28;20088;-70
2021/12/04 07:48:47;;;;;;;12.98;1.73;;;;;;;;;;5010502;28;20057;-70
2021/12/04 07:51:17;;;;;;;4.28;1.55;;;;;;;;;;5010363;28;20129;-72
2021/12/04 07:53:46;;;;;;;4.80;1.60;;;;;;;;;;5011062;28;20411;-70
2021/12/04 07:56:13;;;;;;;2.42;1.27;;;;;;;;;;5011067;28;20057;-71
2021/12/04 07:58:39;;;;;;;4.03;1.42;;;;;;;;;;5010361;28;20042;-70
2021/12/04 08:01:05;;;;;;;3.33;1.40;;;;;;;;;;5010956;28;20053;-72
2021/12/04 08:03:31;;;;;;;3.53;1.50;;;;;;;;;;5010513;28;20443;-71
2021/12/04 08:05:57;;;;;;;2.20;1.20;;;;;;;;;;5010626;28;20132;-69
2021/12/04 08:08:23;;;;;;;3.60;1.67;;;;;;;;;;5009984;28;20457;-72
2021/12/04 08:10:50;;;;;;;3.33;1.42;;;;;;;;;;5010407;28;20084;-70
2021/12/04 08:13:16;;;;;;;2.95;1.42;;;;;;;;;;5010137;28;20065;-71
2021/12/04 08:15:42;;;;;;;2.97;1.70;;;;;;;;;;5003760;28;20082;-70
2021/12/04 08:18:09;;;;;;;2.95;1.70;;;;;;;;;;4990175;28;20101;-69
2021/12/04 08:20:36;;;;;;;2.97;1.42;;;;;;;;;;4974641;28;20385;-70
2021/12/04 08:23:02;;;;;;;3.53;1.40;;;;;;;;;;4980140;28;20050;-69
2021/12/04 08:25:28;;;;;;;2.83;1.35;;;;;;;;;;4972257;28;20386;-71
2021/12/04 08:27:54;;;;;;;3.00;1.60;;;;;;;;;;4975169;28;20517;-72
2021/12/04 08:30:22;;;;;;;2.22;1.30;;;;;;;;;;4971838;28;20077;-69
2021/12/04 08:32:49;;;;;;;3.30;1.65;;;;;;;;;;4970975;28;20573;-71
2021/12/04 08:35:18;;;;;;;2.60;1.40;;;;;;;;;;4988299;28;20050;-71
2021/12/04 08:37:44;;;;;;;3.53;1.30;;;;;;;;;;4990761;28;20054;-72
2021/12/04 08:40:14;;;;;;;2.83;1.63;;;;;;;;;;4990537;28;20089;-71
2021/12/04 08:42:41;;;;;;;2.42;1.45;;;;;;;;;;4990257;28;20051;-70
2021/12/04 08:45:08;;;;;;;3.38;1.80;;;;;;;;;;4990385;28;20046;-72
2021/12/04 08:47:34;;;;;;;2.70;1.45;;;;;;;;;;4990545;28;20043;-71
2021/12/04 08:50:01;;;;;;;2.45;1.33;;;;;;;;;;4990490;28;20050;-69
2021/12/04 08:52:27;;;;;;;2.55;1.20;;;;;;;;;;4992151;28;20061;-70
2021/12/04 08:54:53;;;;;;;2.42;1.30;;;;;;;;;;5008149;28;20129;-70
2021/12/04 08:57:19;;;;;;;3.58;1.58;;;;;;;;;;5009649;28;20424;-70
2021/12/04 08:59:47;;;;;;;4.68;1.50;;;;;;;;;;5008974;28;20050;-71
2021/12/04 09:02:14;;;;;;;3.70;1.60;;;;;;;;;;5009724;28;20049;-70
2021/12/04 09:04:40;;;;;;;3.53;1.33;;;;;;;;;;5008451;28;20052;-71
2021/12/04 09:07:07;;;;;;;4.28;1.40;;;;;;;;;;5009128;28;20041;-70
2021/12/04 09:09:33;;;;;;;4.63;1.40;;;;;;;;;;5009674;28;20042;-71
2021/12/04 09:12:02;;;;;;;6.50;1.83;;;;;;;;;;5008901;28;20064;-72
2021/12/04 09:14:32;;;;;;;2.90;1.53;;;;;;;;;;4998690;28;20416;-71
2021/12/04 09:16:59;;;;;;;6.90;1.58;;;;;;;;;;4966797;28;20046;-70
2021/12/04 09:19:26;;;;;;;3.75;1.60;;;;;;;;;;4970967;28;20046;-71
2021/12/04 09:21:52;;;;;;;3.72;1.95;;;;;;;;;;4976215;28;20038;-70
2021/12/04 09:24:24;;;;;;;5.93;1.80;;;;;;;;;;4987327;28;20089;-70
2021/12/04 10:13:20;;;;;;;10.27;3.97;;;;;;;;;;4979859;28;20238;-72
2021/12/04 10:23:53;;;;;;;12.50;3.65;;;;;;;;;;4980987;28;20112;-71
2021/12/04 10:34:30;;;;;;;6.95;3.03;;;;;;;;;;4988679;28;20050;-75
2021/12/04 10:37:05;;;;;;;7.18;2.88;;;;;;;;;;4984560;28;20042;-76
2021/12/04 10:39:31;;;;;;;7.60;2.88;;;;;;;;;;4986450;28;20058;-75
2021/12/04 10:41:59;;;;;;;4.82;2.50;;;;;;;;;;4983345;28;20043;-77
2021/12/04 10:44:26;;;;;;;10.57;3.00;;;;;;;;;;4982079;28;20046;-76
2021/12/04 10:47:08;;;;;;;11.10;2.90;;;;;;;;;;4983302;28;20039;-75
2021/12/04 10:55:24;;;;;;;3.85;2.22;;;;;;;;;;4980867;28;20042;-76
2021/12/04 11:03:16;;;;;;;4.93;2.30;;;;;;;;;;4983860;28;20054;-75
2021/12/04 11:20:05;;;;;;;5.05;2.28;;;;;;;;;;4983541;28;20418;-76
2021/12/04 11:25:12;;;;;;;3.40;1.80;;;;;;;;;;4960646;28;20574;-77
2021/12/04 11:41:15;;;;;;;4.15;1.70;;;;;;;;;;4983907;28;20181;-75
2021/12/04 11:46:44;;;;;;;3.25;1.70;;;;;;;;;;4981774;28;20050;-75
2021/12/04 11:49:32;;;;;;;3.17;1.70;;;;;;;;;;4984754;28;20038;-74
2021/12/04 11:51:59;;;;;;;2.78;1.60;;;;;;;;;;4985725;28;20039;-74
2021/12/04 11:54:33;;;;;;;3.53;1.95;;;;;;;;;;4983882;28;20130;-73
2021/12/04 11:57:01;;;;;;;3.17;1.58;;;;;;;;;;4984645;28;20034;-74
2021/12/04 11:59:28;;;;;;;4.53;1.60;;;;;;;;;;4980937;28;20038;-76
2021/12/04 12:01:56;;;;;;;3.30;1.60;;;;;;;;;;4987170;28;20242;-77
2021/12/04 12:04:31;;;;;;;4.00;1.70;;;;;;;;;;4981266;28;20089;-77
2021/12/04 12:06:57;;;;;;;2.85;1.60;;;;;;;;;;4981186;28;20045;-79
2021/12/04 12:09:29;;;;;;;3.88;1.58;;;;;;;;;;4984163;28;20039;-76
2021/12/04 12:12:02;;;;;;;4.10;1.70;;;;;;;;;;4978707;28;20065;-75
2021/12/04 12:14:39;;;;;;;2.53;1.48;;;;;;;;;;4978480;28;20049;-76
2021/12/04 12:17:06;;;;;;;4.05;1.70;;;;;;;;;;4987944;28;20050;-75
2021/12/04 12:19:39;;;;;;;3.97;1.40;;;;;;;;;;4990922;28;20049;-74
2021/12/04 12:38:40;;;;;;;2.92;1.60;;;;;;;;;;4966793;28;20424;-73
2021/12/04 12:41:27;;;;;;;5.32;1.60;;;;;;;;;;4989592;28;20061;-73
2021/12/04 12:43:59;;;;;;;2.35;1.33;;;;;;;;;;5001798;28;20129;-74
2021/12/04 12:46:54;;;;;;;3.80;1.95;;;;;;;;;;4970435;28;20137;-73
2021/12/04 12:49:20;;;;;;;4.18;1.55;;;;;;;;;;4966044;28;20058;-73
2021/12/04 12:51:52;;;;;;;2.38;1.23;;;;;;;;;;4968718;28;20097;-74
2021/12/04 12:54:24;;;;;;;3.17;1.60;;;;;;;;;;4969030;28;20043;-73
2021/12/04 12:56:57;;;;;;;2.22;1.40;;;;;;;;;;4968922;28;20047;-75
2021/12/04 12:59:35;;;;;;;2.92;1.58;;;;;;;;;;4968947;28;20042;-75
2021/12/04 13:13:44;;;;;;;3.83;1.70;;;;;;;;;;4953181;28;20101;-76
2021/12/04 13:16:18;;;;;;;3.13;1.70;;;;;;;;;;4969352;28;20381;-75
2021/12/04 13:18:57;;;;;;;2.03;1.25;;;;;;;;;;4953700;28;20393;-76
2021/12/04 13:21:24;;;;;;;3.33;1.60;;;;;;;;;;4970824;28;20082;-75
2021/12/04 13:23:51;;;;;;;5.43;1.60;;;;;;;;;;4970411;28;20050;-76
2021/12/04 13:26:17;;;;;;;2.47;1.67;;;;;;;;;;4970428;28;20062;-76
2021/12/04 13:28:45;;;;;;;2.75;1.60;;;;;;;;;;4970449;28;20105;-77
2021/12/04 13:31:12;;;;;;;2.40;1.73;;;;;;;;;;4970417;28;20049;-77
2021/12/04 13:33:40;;;;;;;2.90;1.75;;;;;;;;;;4969944;28;20051;-76
2021/12/04 13:36:26;;;;;;;5.10;1.63;;;;;;;;;;4969832;28;20047;-78
2021/12/04 13:39:04;;;;;;;3.45;1.73;;;;;;;;;;4969903;28;20046;-76
2021/12/04 13:41:30;;;;;;;2.35;1.60;;;;;;;;;;4969197;28;20053;-75
2021/12/04 13:43:58;;;;;;;3.65;1.95;;;;;;;;;;4969877;28;20046;-76
2021/12/04 13:46:24;;;;;;;1.98;1.40;;;;;;;;;;4970653;28;20047;-76
2021/12/04 13:48:51;;;;;;;2.50;1.70;;;;;;;;;;4956448;28;20038;-77
2021/12/04 13:51:17;;;;;;;3.03;1.60;;;;;;;;;;4973526;28;20046;-75
2021/12/04 13:53:45;;;;;;;2.63;1.60;;;;;;;;;;4973018;28;20105;-76
2021/12/04 13:56:13;;;;;;;2.75;1.65;;;;;;;;;;4973440;28;20102;-76
2021/12/04 13:58:52;;;;;;;2.45;1.50;;;;;;;;;;4973326;28;20078;-76
2021/12/04 14:01:18;;;;;;;;;;;;;;;;;;4956405;28;20057;-77
2021/12/04 14:03:45;;;;;;;2.92;1.77;;;;;;;;;;4973046;28;19922;-76
2021/12/04 14:06:16;;;;;;;2.30;1.75;;;;;;;;;;4956177;28;20065;-76
2021/12/04 14:08:42;;;;;;;2.47;1.65;;;;;;;;;;4973611;28;20073;-78
2021/12/04 14:11:08;;;;;;;3.20;1.98;;;;;;;;;;4973218;28;20485;-76
2021/12/04 14:13:37;;;;;;;3.88;2.28;;;;;;;;;;4973174;28;20603;-76
2021/12/04 14:16:03;;;;;;;2.93;2.00;;;;;;;;;;4955582;28;20050;-76
2021/12/04 14:18:30;;;;;;;3.90;2.60;;;;;;;;;;4955573;28;20047;-77
2021/12/04 14:21:00;;;;;;;3.25;2.28;;;;;;;;;;4973272;28;20055;-77
2021/12/04 14:23:27;;;;;;;4.13;2.13;;;;;;;;;;4973162;28;20046;-75
2021/12/04 14:25:54;;;;;;;3.63;1.90;;;;;;;;;;4973119;28;20134;-75
2021/12/04 14:28:21;;;;;;;3.80;2.60;;;;;;;;;;4973028;28;20580;-75
2021/12/04 14:30:49;;;;;;;2.88;1.80;;;;;;;;;;4972670;28;20039;-75
2021/12/04 14:33:18;;;;;;;3.55;2.15;;;;;;;;;;4985417;28;20420;-74
2021/12/04 14:35:44;;;;;;;;;;;;;;;;;;4992601;28;20065;-73
2021/12/04 14:38:12;;;;;;;4.22;2.20;;;;;;;;;;4993859;28;19928;-74
2021/12/04 14:40:46;;;;;;;3.45;2.10;;;;;;;;;;5011060;28;20041;-74
2021/12/04 14:43:15;;;;;;;4.20;2.42;;;;;;;;;;5012192;28;20440;-75
2021/12/04 14:45:44;;;;;;;3.17;2.17;;;;;;;;;;4951076;28;20086;-75
2021/12/04 14:48:22;;;;;;;2.95;2.08;;;;;;;;;;4973790;28;20050;-74
2021/12/04 14:50:50;;;;;;;4.30;2.13;;;;;;;;;;4992774;28;20105;-74
2021/12/04 14:53:17;;;;;;;3.55;2.30;;;;;;;;;;4992593;28;20417;-73
2021/12/04 14:55:45;;;;;;;4.07;2.40;;;;;;;;;;4992696;28;20096;-73
2021/12/04 14:58:13;;;;;;;4.07;2.60;;;;;;;;;;4991518;28;20046;-74
2021/12/04 15:00:51;;;;;;;4.40;2.63;;;;;;;;;;4991173;28;20078;-73
2021/12/04 15:03:21;;;;;;;3.92;2.45;;;;;;;;;;4991732;28;20129;-75
2021/12/04 15:05:49;;;;;;;4.30;2.40;;;;;;;;;;4974854;28;20089;-73
2021/12/04 15:08:21;;;;;;;5.60;3.20;;;;;;;;;;4991932;28;20054;-73
2021/12/04 15:11:07;;;;;;;4.38;2.80;;;;;;;;;;4992512;28;20046;-73
2021/12/04 15:13:35;;;;;;;4.30;2.83;;;;;;;;;;4987582;28;20054;-72
2021/12/04 15:16:04;;;;;;;5.20;3.13;;;;;;;;;;4992415;28;20093;-72
2021/12/04 15:18:31;;;;;;;5.10;3.40;;;;;;;;;;4991859;28;20058;-72
2021/12/04 15:21:02;;;;;;;5.65;3.28;;;;;;;;;;4992289;28;20519;-73
2021/12/04 15:23:29;;;;;;;6.35;3.42;;;;;;;;;;4991669;28;20042;-72
2021/12/04 15:25:58;;;;;;;5.63;3.53;;;;;;;;;;4974132;28;20692;-72
2021/12/04 15:28:26;;;;;;;5.90;3.85;;;;;;;;;;4974710;28;20054;-73
2021/12/04 15:30:54;;;;;;;6.80;3.70;;;;;;;;;;4991742;28;20544;-74
2021/12/04 15:33:25;;;;;;;7.10;4.35;;;;;;;;;;4991847;28;20140;-74
2021/12/04 15:35:52;;;;;;;7.13;4.28;;;;;;;;;;4991641;28;20053;-74
2021/12/04 15:38:26;;;;;;;7.68;4.72;;;;;;;;;;4991634;28;20184;-73
2021/12/04 15:41:11;;;;;;;6.65;4.30;;;;;;;;;;4991452;28;20050;-74
2021/12/04 15:43:59;;;;;;;9.18;4.75;;;;;;;;;;4974102;28;20058;-73
2021/12/04 15:47:11;;;;;;;6.68;4.55;;;;;;;;;;4991521;28;20050;-75
2021/12/04 15:49:34;;;;;;;6.97;4.70;;;;;;;;;;4988452;28;20054;-74
2021/12/04 15:54:47;;;;;;;7.97;5.15;;;;;;;;;;4991092;28;20507;-74
2021/12/04 15:57:19;;;;;;;7.47;4.50;;;;;;;;;;4990916;28;20146;-74
2021/12/04 15:59:46;;;;;;;7.15;5.10;;;;;;;;;;4990262;28;20141;-75
2021/12/04 16:02:14;;;;;;;7.90;5.03;;;;;;;;;;4991010;28;20178;-75
2021/12/04 16:04:40;;;;;;;8.40;4.68;;;;;;;;;;4991147;28;20177;-75
2021/12/04 16:07:06;;;;;;;8.07;5.57;;;;;;;;;;4973895;28;20065;-74
2021/12/04 16:09:34;;;;;;;7.75;4.90;;;;;;;;;;4990439;28;20046;-76
2021/12/04 16:12:02;;;;;;;7.13;4.70;;;;;;;;;;4990508;28;20077;-74
2021/12/04 16:14:30;;;;;;;7.63;5.05;;;;;;;;;;4990472;28;20061;-75
2021/12/04 16:16:56;;;;;;;8.50;5.18;;;;;;;;;;4990870;28;20172;-75
2021/12/04 16:19:22;;;;;;;8.82;5.35;;;;;;;;;;4990458;28;20049;-74
2021/12/04 16:21:48;;;;;;;9.70;5.70;;;;;;;;;;4973325;28;20177;-75
2021/12/04 16:24:14;;;;;;;9.35;5.45;;;;;;;;;;4990580;28;20050;-74
2021/12/04 16:26:41;;;;;;;7.88;5.60;;;;;;;;;;4973412;28;20092;-74
2021/12/04 16:29:09;;;;;;;8.07;5.60;;;;;;;;;;4972746;28;20046;-73
2021/12/04 16:31:53;;;;;;;10.18;5.90;;;;;;;;;;4990178;28;20504;-74
2021/12/04 16:39:30;;;;;;;11.02;5.82;;;;;;;;;;4982723;28;20134;-73
2021/12/04 16:41:56;;;;;;;8.45;5.40;;;;;;;;;;4999247;28;20046;-75
2021/12/04 16:44:22;;;;;;;7.88;5.80;;;;;;;;;;4979856;28;20055;-74
2021/12/04 16:46:50;;;;;;;8.50;5.55;;;;;;;;;;4973336;28;20053;-76
2021/12/04 16:49:16;;;;;;;10.95;5.85;;;;;;;;;;4971548;28;20105;-75
2021/12/04 16:59:51;;;;;;;10.15;6.60;;;;;;;;;;5008783;28;20042;-75
2021/12/04 17:02:21;;;;;;;9.27;6.03;;;;;;;;;;4989980;28;20046;-73
2021/12/04 17:04:49;;;;;;;11.32;6.32;;;;;;;;;;4997606;28;20042;-73
2021/12/04 17:07:15;;;;;;;13.00;6.70;;;;;;;;;;5002619;28;20050;-74
2021/12/04 17:09:41;;;;;;;11.32;5.95;;;;;;;;;;4984118;28;20043;-74
2021/12/04 17:12:08;;;;;;;11.30;5.88;;;;;;;;;;4970060;28;20065;-74
2021/12/04 17:14:36;;;;;;;10.90;6.32;;;;;;;;;;4969959;28;20054;-73
2021/12/04 17:17:04;;;;;;;11.63;6.10;;;;;;;;;;5007761;28;20058;-75
2021/12/04 17:19:30;;;;;;;10.45;6.05;;;;;;;;;;5008434;28;20046;-74
2021/12/04 17:21:57;;;;;;;10.65;6.57;;;;;;;;;;5007685;28;20043;-74
2021/12/04 17:24:28;;;;;;;12.13;6.88;;;;;;;;;;4987798;28;20051;-73
2021/12/04 17:26:54;;;;;;;9.73;6.10;;;;;;;;;;5000367;28;20408;-75
2021/12/04 17:29:22;;;;;;;10.40;6.95;;;;;;;;;;4988632;28;20514;-75
2021/12/04 17:31:49;;;;;;;10.32;6.03;;;;;;;;;;4989014;28;20101;-74
2021/12/04 17:34:16;;;;;;;8.98;6.30;;;;;;;;;;4972277;28;20050;-75
2021/12/04 17:36:42;;;;;;;10.20;5.93;;;;;;;;;;4969605;28;20409;-73
2021/12/04 17:39:10;;;;;;;8.80;6.05;;;;;;;;;;4976751;28;20054;-74
2021/12/04 17:41:36;;;;;;;10.38;6.20;;;;;;;;;;4993097;28;20042;-73
2021/12/04 17:44:09;;;;;;;9.18;6.07;;;;;;;;;;4987837;28;20054;-73
2021/12/04 17:46:36;;;;;;;15.80;6.95;;;;;;;;;;4987849;28;20050;-72
2021/12/04 17:49:04;;;;;;;9.50;6.47;;;;;;;;;;4988071;28;20086;-71
2021/12/04 17:51:31;;;;;;;9.80;6.00;;;;;;;;;;4981162;28;20087;-73
2021/12/04 17:53:59;;;;;;;11.82;6.28;;;;;;;;;;4992025;28;20460;-74
2021/12/04 17:56:25;;;;;;;9.10;5.78;;;;;;;;;;4976219;28;20120;-72
2021/12/04 17:58:52;;;;;;;11.07;6.45;;;;;;;;;;4974984;28;20073;-75
2021/12/04 18:01:38;;;;;;;10.18;5.72;;;;;;;;;;4960325;28;20418;-75
2021/12/04 18:04:05;;;;;;;8.27;5.47;;;;;;;;;;4988779;28;20579;-76
2021/12/04 18:06:32;;;;;;;9.73;5.78;;;;;;;;;;4988385;28;20046;-74
2021/12/04 18:08:58;;;;;;;8.75;5.80;;;;;;;;;;4988010;28;20045;-74
2021/12/04 18:11:27;;;;;;;9.40;5.70;;;;;;;;;;4988384;28;20085;-75
2021/12/04 18:13:55;;;;;;;8.68;5.32;;;;;;;;;;4989091;28;20046;-73
2021/12/04 18:16:24;;;;;;;7.10;5.53;;;;;;;;;;4971563;28;20588;-73
2021/12/04 18:18:50;;;;;;;9.97;5.33;;;;;;;;;;4972086;28;20092;-74
2021/12/04 18:21:16;;;;;;;7.93;5.60;;;;;;;;;;4987905;28;20097;-74
2021/12/04 18:23:43;;;;;;;9.38;5.63;;;;;;;;;;4989250;28;20081;-74